sensor_id;sensor_type;location;lat;lon;timestamp;P1;durP1;ratioP1;P2;durP2;ratioP2
72559;SDS011;62987;52.382;9.752;2023-06-26T00:00:41;7.00;;;3.70;;
72559;SDS011;62987;52.382;9.752;2023-06-26T00:03:10;7.20;;;3.90;;
72559;SDS011;62987;52.382;9.752;2023-06-26T00:05:41;8.20;;;4.57;;
72559;SDS011;62987;52.382;9.752;2023-06-26T00:08:09;6.95;;;4.13;;
72559;SDS011;62987;52.382;9.752;2023-06-26T00:10:38;7.28;;;3.63;;
72559;SDS011;62987;52.382;9.752;2023-06-26T00:13:06;8.77;;;3.65;;
72559;SDS011;62987;52.382;9.752;2023-06-26T00:15:34;7.47;;;4.20;;
72559;SDS011;62987;52.382;9.752;2023-06-26T00:18:02;9.95;;;4.65;;
72559;SDS011;62987;52.382;9.752;2023-06-26T00:20:32;7.03;;;3.70;;
72559;SDS011;62987;52.382;9.752;2023-06-26T00:23:00;7.93;;;4.10;;
72559;SDS011;62987;52.382;9.752;2023-06-26T00:25:30;8.23;;;4.43;;
72559;SDS011;62987;52.382;9.752;2023-06-26T00:27:58;7.93;;;4.15;;
72559;SDS011;62987;52.382;9.752;2023-06-26T00:30:26;7.97;;;4.32;;
72559;SDS011;62987;52.382;9.752;2023-06-26T00:32:56;7.32;;;4.43;;
72559;SDS011;62987;52.382;9.752;2023-06-26T00:35:24;7.65;;;3.95;;
72559;SDS011;62987;52.382;9.752;2023-06-26T00:37:54;6.68;;;3.65;;
72559;SDS011;62987;52.382;9.752;2023-06-26T00:40:22;11.30;;;5.50;;
72559;SDS011;62987;52.382;9.752;2023-06-26T00:42:50;8.68;;;4.30;;
72559;SDS011;62987;52.382;9.752;2023-06-26T00:45:18;7.18;;;3.45;;
72559;SDS011;62987;52.382;9.752;2023-06-26T00:48:03;7.20;;;3.90;;
72559;SDS011;62987;52.382;9.752;2023-06-26T00:50:33;7.30;;;4.00;;
72559;SDS011;62987;52.382;9.752;2023-06-26T00:53:02;5.35;;;3.58;;
72559;SDS011;62987;52.382;9.752;2023-06-26T00:55:31;6.30;;;4.07;;
72559;SDS011;62987;52.382;9.752;2023-06-26T00:57:59;8.18;;;3.95;;
72559;SDS011;62987;52.382;9.752;2023-06-26T01:00:27;8.68;;;3.67;;
72559;SDS011;62987;52.382;9.752;2023-06-26T01:02:56;7.32;;;3.65;;
72559;SDS011;62987;52.382;9.752;2023-06-26T01:05:26;8.40;;;3.92;;
72559;SDS011;62987;52.382;9.752;2023-06-26T01:07:55;8.63;;;4.15;;
72559;SDS011;62987;52.382;9.752;2023-06-26T01:10:25;5.80;;;3.92;;
72559;SDS011;62987;52.382;9.752;2023-06-26T01:12:55;6.28;;;3.40;;
72559;SDS011;62987;52.382;9.752;2023-06-26T01:15:24;5.20;;;3.35;;
72559;SDS011;62987;52.382;9.752;2023-06-26T01:17:53;6.07;;;4.28;;
72559;SDS011;62987;52.382;9.752;2023-06-26T01:20:21;6.63;;;3.58;;
72559;SDS011;62987;52.382;9.752;2023-06-26T01:22:58;5.10;;;3.03;;
72559;SDS011;62987;52.382;9.752;2023-06-26T01:25:35;5.57;;;3.15;;
72559;SDS011;62987;52.382;9.752;2023-06-26T01:28:11;8.07;;;3.17;;
72559;SDS011;62987;52.382;9.752;2023-06-26T01:30:42;6.60;;;2.90;;
72559;SDS011;62987;52.382;9.752;2023-06-26T01:33:12;5.88;;;3.00;;
72559;SDS011;62987;52.382;9.752;2023-06-26T01:35:42;5.30;;;2.90;;
72559;SDS011;62987;52.382;9.752;2023-06-26T01:38:14;5.78;;;3.60;;
72559;SDS011;62987;52.382;9.752;2023-06-26T01:40:44;7.38;;;3.42;;
72559;SDS011;62987;52.382;9.752;2023-06-26T01:43:15;5.50;;;2.83;;
72559;SDS011;62987;52.382;9.752;2023-06-26T01:45:48;5.45;;;3.08;;
72559;SDS011;62987;52.382;9.752;2023-06-26T01:48:21;6.60;;;2.83;;
72559;SDS011;62987;52.382;9.752;2023-06-26T01:50:52;5.43;;;3.00;;
72559;SDS011;62987;52.382;9.752;2023-06-26T01:53:24;7.82;;;3.25;;
72559;SDS011;62987;52.382;9.752;2023-06-26T01:55:53;6.13;;;3.10;;
72559;SDS011;62987;52.382;9.752;2023-06-26T01:58:28;5.95;;;2.83;;
72559;SDS011;62987;52.382;9.752;2023-06-26T02:00:57;5.43;;;3.08;;
72559;SDS011;62987;52.382;9.752;2023-06-26T02:03:25;6.90;;;3.67;;
72559;SDS011;62987;52.382;9.752;2023-06-26T02:05:53;6.15;;;3.03;;
72559;SDS011;62987;52.382;9.752;2023-06-26T02:08:21;7.25;;;3.35;;
72559;SDS011;62987;52.382;9.752;2023-06-26T02:10:49;5.55;;;3.42;;
72559;SDS011;62987;52.382;9.752;2023-06-26T02:13:17;6.53;;;3.05;;
72559;SDS011;62987;52.382;9.752;2023-06-26T02:15:47;6.07;;;2.67;;
72559;SDS011;62987;52.382;9.752;2023-06-26T02:18:15;5.57;;;2.58;;
72559;SDS011;62987;52.382;9.752;2023-06-26T02:20:44;5.22;;;2.78;;
72559;SDS011;62987;52.382;9.752;2023-06-26T02:23:12;7.88;;;3.42;;
72559;SDS011;62987;52.382;9.752;2023-06-26T02:25:40;5.63;;;2.67;;
72559;SDS011;62987;52.382;9.752;2023-06-26T02:28:09;5.63;;;3.03;;
72559;SDS011;62987;52.382;9.752;2023-06-26T02:30:37;6.55;;;3.05;;
72559;SDS011;62987;52.382;9.752;2023-06-26T02:33:07;6.45;;;3.28;;
72559;SDS011;62987;52.382;9.752;2023-06-26T02:35:35;6.45;;;2.88;;
72559;SDS011;62987;52.382;9.752;2023-06-26T02:38:03;6.07;;;3.03;;
72559;SDS011;62987;52.382;9.752;2023-06-26T02:40:31;5.28;;;2.78;;
72559;SDS011;62987;52.382;9.752;2023-06-26T02:43:01;5.85;;;2.83;;
72559;SDS011;62987;52.382;9.752;2023-06-26T02:45:30;4.13;;;2.55;;
72559;SDS011;62987;52.382;9.752;2023-06-26T02:47:58;3.90;;;2.28;;
72559;SDS011;62987;52.382;9.752;2023-06-26T02:50:29;6.63;;;2.72;;
72559;SDS011;62987;52.382;9.752;2023-06-26T02:53:06;8.60;;;3.25;;
72559;SDS011;62987;52.382;9.752;2023-06-26T02:55:35;4.80;;;2.53;;
72559;SDS011;62987;52.382;9.752;2023-06-26T02:58:03;4.63;;;2.03;;
72559;SDS011;62987;52.382;9.752;2023-06-26T03:00:32;6.53;;;2.72;;
72559;SDS011;62987;52.382;9.752;2023-06-26T03:03:02;6.80;;;2.60;;
72559;SDS011;62987;52.382;9.752;2023-06-26T03:05:32;5.07;;;2.78;;
72559;SDS011;62987;52.382;9.752;2023-06-26T03:08:01;5.00;;;2.83;;
72559;SDS011;62987;52.382;9.752;2023-06-26T03:10:31;4.45;;;2.25;;
72559;SDS011;62987;52.382;9.752;2023-06-26T03:12:59;5.72;;;3.00;;
72559;SDS011;62987;52.382;9.752;2023-06-26T03:15:27;5.53;;;2.47;;
72559;SDS011;62987;52.382;9.752;2023-06-26T03:17:55;5.57;;;2.40;;
72559;SDS011;62987;52.382;9.752;2023-06-26T03:20:26;5.35;;;2.78;;
72559;SDS011;62987;52.382;9.752;2023-06-26T03:22:57;5.25;;;2.55;;
72559;SDS011;62987;52.382;9.752;2023-06-26T03:25:25;4.45;;;2.38;;
72559;SDS011;62987;52.382;9.752;2023-06-26T03:28:07;5.32;;;2.70;;
72559;SDS011;62987;52.382;9.752;2023-06-26T03:30:35;5.18;;;2.92;;
72559;SDS011;62987;52.382;9.752;2023-06-26T03:33:05;5.88;;;2.70;;
72559;SDS011;62987;52.382;9.752;2023-06-26T03:35:33;4.97;;;2.63;;
72559;SDS011;62987;52.382;9.752;2023-06-26T03:38:03;5.90;;;2.50;;
72559;SDS011;62987;52.382;9.752;2023-06-26T03:40:33;4.50;;;2.88;;
72559;SDS011;62987;52.382;9.752;2023-06-26T03:43:01;6.03;;;3.08;;
72559;SDS011;62987;52.382;9.752;2023-06-26T03:45:38;4.88;;;2.30;;
72559;SDS011;62987;52.382;9.752;2023-06-26T03:48:06;6.53;;;2.83;;
72559;SDS011;62987;52.382;9.752;2023-06-26T03:50:35;4.75;;;2.28;;
72559;SDS011;62987;52.382;9.752;2023-06-26T03:53:05;5.00;;;2.63;;
72559;SDS011;62987;52.382;9.752;2023-06-26T03:55:33;7.22;;;2.63;;
72559;SDS011;62987;52.382;9.752;2023-06-26T03:58:03;5.05;;;2.40;;
72559;SDS011;62987;52.382;9.752;2023-06-26T04:00:31;4.03;;;2.13;;
72559;SDS011;62987;52.382;9.752;2023-06-26T04:02:59;5.25;;;2.70;;
72559;SDS011;62987;52.382;9.752;2023-06-26T04:05:30;8.25;;;4.22;;
72559;SDS011;62987;52.382;9.752;2023-06-26T04:07:58;5.43;;;2.55;;
72559;SDS011;62987;52.382;9.752;2023-06-26T04:10:27;6.03;;;2.63;;
72559;SDS011;62987;52.382;9.752;2023-06-26T04:12:55;5.65;;;2.60;;
72559;SDS011;62987;52.382;9.752;2023-06-26T04:15:23;3.85;;;2.33;;
72559;SDS011;62987;52.382;9.752;2023-06-26T04:17:53;5.82;;;2.78;;
72559;SDS011;62987;52.382;9.752;2023-06-26T04:20:21;4.60;;;2.20;;
72559;SDS011;62987;52.382;9.752;2023-06-26T04:22:50;5.70;;;2.25;;
72559;SDS011;62987;52.382;9.752;2023-06-26T04:25:18;6.90;;;2.42;;
72559;SDS011;62987;52.382;9.752;2023-06-26T04:27:47;5.43;;;2.15;;
72559;SDS011;62987;52.382;9.752;2023-06-26T04:30:15;5.82;;;2.80;;
72559;SDS011;62987;52.382;9.752;2023-06-26T04:32:43;3.97;;;2.03;;
72559;SDS011;62987;52.382;9.752;2023-06-26T04:35:11;6.63;;;2.65;;
72559;SDS011;62987;52.382;9.752;2023-06-26T04:37:39;5.82;;;2.22;;
72559;SDS011;62987;52.382;9.752;2023-06-26T04:40:08;6.35;;;3.25;;
72559;SDS011;62987;52.382;9.752;2023-06-26T04:42:37;6.22;;;2.47;;
72559;SDS011;62987;52.382;9.752;2023-06-26T04:45:11;4.95;;;2.30;;
72559;SDS011;62987;52.382;9.752;2023-06-26T04:47:39;6.35;;;2.72;;
72559;SDS011;62987;52.382;9.752;2023-06-26T04:50:07;4.70;;;2.75;;
72559;SDS011;62987;52.382;9.752;2023-06-26T04:52:36;5.32;;;2.38;;
72559;SDS011;62987;52.382;9.752;2023-06-26T04:55:04;6.95;;;2.90;;
72559;SDS011;62987;52.382;9.752;2023-06-26T04:57:32;4.32;;;2.03;;
72559;SDS011;62987;52.382;9.752;2023-06-26T05:00:00;5.20;;;2.55;;
72559;SDS011;62987;52.382;9.752;2023-06-26T05:02:30;4.68;;;2.22;;
72559;SDS011;62987;52.382;9.752;2023-06-26T05:04:58;4.90;;;2.30;;
72559;SDS011;62987;52.382;9.752;2023-06-26T05:07:26;6.88;;;2.45;;
72559;SDS011;62987;52.382;9.752;2023-06-26T05:09:54;5.13;;;2.58;;
72559;SDS011;62987;52.382;9.752;2023-06-26T05:12:22;5.10;;;2.53;;
72559;SDS011;62987;52.382;9.752;2023-06-26T05:14:50;5.05;;;2.70;;
72559;SDS011;62987;52.382;9.752;2023-06-26T05:17:18;6.57;;;2.72;;
72559;SDS011;62987;52.382;9.752;2023-06-26T05:19:48;6.90;;;2.92;;
72559;SDS011;62987;52.382;9.752;2023-06-26T05:22:16;4.38;;;2.78;;
72559;SDS011;62987;52.382;9.752;2023-06-26T05:24:45;4.47;;;2.25;;
72559;SDS011;62987;52.382;9.752;2023-06-26T05:27:14;5.25;;;2.35;;
72559;SDS011;62987;52.382;9.752;2023-06-26T05:29:48;8.00;;;2.53;;
72559;SDS011;62987;52.382;9.752;2023-06-26T05:32:17;6.15;;;2.55;;
72559;SDS011;62987;52.382;9.752;2023-06-26T05:34:45;4.72;;;2.78;;
72559;SDS011;62987;52.382;9.752;2023-06-26T05:37:17;4.85;;;2.40;;
72559;SDS011;62987;52.382;9.752;2023-06-26T05:39:48;4.78;;;2.22;;
72559;SDS011;62987;52.382;9.752;2023-06-26T05:42:16;4.80;;;2.33;;
72559;SDS011;62987;52.382;9.752;2023-06-26T05:44:45;6.32;;;2.58;;
72559;SDS011;62987;52.382;9.752;2023-06-26T05:47:13;4.28;;;2.22;;
72559;SDS011;62987;52.382;9.752;2023-06-26T05:49:41;5.43;;;2.75;;
72559;SDS011;62987;52.382;9.752;2023-06-26T05:52:11;5.45;;;2.60;;
72559;SDS011;62987;52.382;9.752;2023-06-26T05:54:40;4.95;;;2.25;;
72559;SDS011;62987;52.382;9.752;2023-06-26T05:57:09;4.70;;;2.50;;
72559;SDS011;62987;52.382;9.752;2023-06-26T05:59:37;7.93;;;2.95;;
72559;SDS011;62987;52.382;9.752;2023-06-26T06:02:07;5.45;;;2.70;;
72559;SDS011;62987;52.382;9.752;2023-06-26T06:04:35;6.38;;;3.25;;
72559;SDS011;62987;52.382;9.752;2023-06-26T06:07:04;7.13;;;2.70;;
72559;SDS011;62987;52.382;9.752;2023-06-26T06:09:34;4.85;;;2.67;;
72559;SDS011;62987;52.382;9.752;2023-06-26T06:12:02;5.13;;;2.45;;
72559;SDS011;62987;52.382;9.752;2023-06-26T06:14:32;8.57;;;4.00;;
72559;SDS011;62987;52.382;9.752;2023-06-26T06:17:01;6.82;;;3.10;;
72559;SDS011;62987;52.382;9.752;2023-06-26T06:19:29;5.22;;;2.70;;
72559;SDS011;62987;52.382;9.752;2023-06-26T06:22:00;6.13;;;2.47;;
72559;SDS011;62987;52.382;9.752;2023-06-26T06:24:28;5.88;;;2.25;;
72559;SDS011;62987;52.382;9.752;2023-06-26T06:26:57;4.15;;;2.30;;
72559;SDS011;62987;52.382;9.752;2023-06-26T06:29:25;4.68;;;2.70;;
72559;SDS011;62987;52.382;9.752;2023-06-26T06:31:53;5.60;;;3.10;;
72559;SDS011;62987;52.382;9.752;2023-06-26T06:34:21;4.68;;;2.20;;
72559;SDS011;62987;52.382;9.752;2023-06-26T06:36:49;8.15;;;2.75;;
72559;SDS011;62987;52.382;9.752;2023-06-26T06:39:17;6.03;;;3.28;;
72559;SDS011;62987;52.382;9.752;2023-06-26T06:41:45;6.07;;;2.78;;
72559;SDS011;62987;52.382;9.752;2023-06-26T06:44:15;6.68;;;3.22;;
72559;SDS011;62987;52.382;9.752;2023-06-26T06:46:43;5.65;;;3.03;;
72559;SDS011;62987;52.382;9.752;2023-06-26T06:49:11;7.13;;;2.83;;
72559;SDS011;62987;52.382;9.752;2023-06-26T06:51:39;5.63;;;2.70;;
72559;SDS011;62987;52.382;9.752;2023-06-26T06:54:07;5.03;;;2.65;;
72559;SDS011;62987;52.382;9.752;2023-06-26T06:56:35;4.50;;;2.65;;
72559;SDS011;62987;52.382;9.752;2023-06-26T06:59:03;7.53;;;3.28;;
72559;SDS011;62987;52.382;9.752;2023-06-26T07:01:32;5.35;;;2.55;;
72559;SDS011;62987;52.382;9.752;2023-06-26T07:04:00;6.45;;;2.88;;
72559;SDS011;62987;52.382;9.752;2023-06-26T07:06:30;6.15;;;2.22;;
72559;SDS011;62987;52.382;9.752;2023-06-26T07:08:58;6.25;;;3.03;;
72559;SDS011;62987;52.382;9.752;2023-06-26T07:11:26;5.15;;;2.75;;
72559;SDS011;62987;52.382;9.752;2023-06-26T07:13:55;4.85;;;2.78;;
72559;SDS011;62987;52.382;9.752;2023-06-26T07:16:23;4.85;;;2.85;;
72559;SDS011;62987;52.382;9.752;2023-06-26T07:18:52;4.63;;;2.58;;
72559;SDS011;62987;52.382;9.752;2023-06-26T07:21:21;5.40;;;2.60;;
72559;SDS011;62987;52.382;9.752;2023-06-26T07:23:52;5.25;;;2.88;;
72559;SDS011;62987;52.382;9.752;2023-06-26T07:26:20;4.78;;;2.92;;
72559;SDS011;62987;52.382;9.752;2023-06-26T07:29:05;6.65;;;3.20;;
72559;SDS011;62987;52.382;9.752;2023-06-26T07:31:33;5.75;;;3.10;;
72559;SDS011;62987;52.382;9.752;2023-06-26T07:34:03;5.65;;;2.65;;
72559;SDS011;62987;52.382;9.752;2023-06-26T07:36:31;6.22;;;3.03;;
72559;SDS011;62987;52.382;9.752;2023-06-26T07:38:59;6.03;;;3.15;;
72559;SDS011;62987;52.382;9.752;2023-06-26T07:41:27;5.47;;;2.67;;
72559;SDS011;62987;52.382;9.752;2023-06-26T07:43:57;5.32;;;2.75;;
72559;SDS011;62987;52.382;9.752;2023-06-26T07:46:26;5.00;;;2.83;;
72559;SDS011;62987;52.382;9.752;2023-06-26T07:48:54;6.82;;;3.25;;
72559;SDS011;62987;52.382;9.752;2023-06-26T07:51:24;5.57;;;3.22;;
72559;SDS011;62987;52.382;9.752;2023-06-26T07:53:51;5.13;;;3.20;;
72559;SDS011;62987;52.382;9.752;2023-06-26T07:59:23;4.95;;;3.00;;
72559;SDS011;62987;52.382;9.752;2023-06-26T08:01:53;6.15;;;3.60;;
72559;SDS011;62987;52.382;9.752;2023-06-26T08:04:22;5.22;;;2.80;;
72559;SDS011;62987;52.382;9.752;2023-06-26T08:06:53;5.45;;;3.17;;
72559;SDS011;62987;52.382;9.752;2023-06-26T08:09:23;7.13;;;3.65;;
72559;SDS011;62987;52.382;9.752;2023-06-26T08:11:53;6.15;;;2.88;;
72559;SDS011;62987;52.382;9.752;2023-06-26T08:14:22;6.43;;;3.47;;
72559;SDS011;62987;52.382;9.752;2023-06-26T08:16:50;6.65;;;3.90;;
72559;SDS011;62987;52.382;9.752;2023-06-26T08:19:18;5.75;;;3.13;;
72559;SDS011;62987;52.382;9.752;2023-06-26T08:21:47;6.28;;;3.17;;
72559;SDS011;62987;52.382;9.752;2023-06-26T08:24:16;7.03;;;4.10;;
72559;SDS011;62987;52.382;9.752;2023-06-26T08:26:46;6.60;;;3.40;;
72559;SDS011;62987;52.382;9.752;2023-06-26T08:29:14;6.85;;;3.63;;
72559;SDS011;62987;52.382;9.752;2023-06-26T08:31:43;5.38;;;2.90;;
72559;SDS011;62987;52.382;9.752;2023-06-26T08:34:11;5.75;;;3.72;;
72559;SDS011;62987;52.382;9.752;2023-06-26T08:36:39;5.95;;;3.35;;
72559;SDS011;62987;52.382;9.752;2023-06-26T08:39:07;4.85;;;3.40;;
72559;SDS011;62987;52.382;9.752;2023-06-26T08:41:37;6.40;;;2.90;;
72559;SDS011;62987;52.382;9.752;2023-06-26T08:44:05;5.93;;;3.42;;
72559;SDS011;62987;52.382;9.752;2023-06-26T08:46:33;5.75;;;3.30;;
72559;SDS011;62987;52.382;9.752;2023-06-26T08:49:03;5.13;;;3.25;;
72559;SDS011;62987;52.382;9.752;2023-06-26T08:51:40;5.63;;;3.50;;
72559;SDS011;62987;52.382;9.752;2023-06-26T08:54:11;5.95;;;4.15;;
72559;SDS011;62987;52.382;9.752;2023-06-26T08:56:44;6.85;;;3.20;;
72559;SDS011;62987;52.382;9.752;2023-06-26T08:59:16;6.55;;;3.33;;
72559;SDS011;62987;52.382;9.752;2023-06-26T09:01:44;6.78;;;3.47;;
72559;SDS011;62987;52.382;9.752;2023-06-26T09:04:13;4.97;;;3.20;;
72559;SDS011;62987;52.382;9.752;2023-06-26T09:06:41;9.00;;;3.90;;
72559;SDS011;62987;52.382;9.752;2023-06-26T09:09:11;6.03;;;3.33;;
72559;SDS011;62987;52.382;9.752;2023-06-26T09:11:39;6.20;;;3.92;;
72559;SDS011;62987;52.382;9.752;2023-06-26T09:14:09;7.18;;;4.30;;
72559;SDS011;62987;52.382;9.752;2023-06-26T09:16:41;9.98;;;4.80;;
72559;SDS011;62987;52.382;9.752;2023-06-26T09:19:10;6.60;;;3.47;;
72559;SDS011;62987;52.382;9.752;2023-06-26T09:21:39;7.38;;;3.53;;
72559;SDS011;62987;52.382;9.752;2023-06-26T09:24:08;7.60;;;3.80;;
72559;SDS011;62987;52.382;9.752;2023-06-26T09:26:38;6.40;;;3.70;;
72559;SDS011;62987;52.382;9.752;2023-06-26T09:29:07;6.97;;;3.78;;
72559;SDS011;62987;52.382;9.752;2023-06-26T09:31:38;5.38;;;3.45;;
72559;SDS011;62987;52.382;9.752;2023-06-26T09:34:08;8.27;;;4.88;;
72559;SDS011;62987;52.382;9.752;2023-06-26T09:36:37;7.90;;;4.22;;
72559;SDS011;62987;52.382;9.752;2023-06-26T09:39:08;8.50;;;4.00;;
72559;SDS011;62987;52.382;9.752;2023-06-26T09:41:40;7.68;;;4.20;;
72559;SDS011;62987;52.382;9.752;2023-06-26T09:44:11;8.95;;;5.47;;
72559;SDS011;62987;52.382;9.752;2023-06-26T09:46:44;9.80;;;4.82;;
72559;SDS011;62987;52.382;9.752;2023-06-26T09:49:13;7.82;;;4.47;;
72559;SDS011;62987;52.382;9.752;2023-06-26T09:51:41;7.60;;;4.93;;
72559;SDS011;62987;52.382;9.752;2023-06-26T09:54:10;8.10;;;4.47;;
72559;SDS011;62987;52.382;9.752;2023-06-26T09:56:38;5.97;;;3.80;;
72559;SDS011;62987;52.382;9.752;2023-06-26T09:59:07;7.40;;;3.95;;
72559;SDS011;62987;52.382;9.752;2023-06-26T10:01:39;7.30;;;3.75;;
72559;SDS011;62987;52.382;9.752;2023-06-26T10:04:09;7.10;;;4.00;;
72559;SDS011;62987;52.382;9.752;2023-06-26T10:06:38;7.53;;;3.92;;
72559;SDS011;62987;52.382;9.752;2023-06-26T10:09:13;8.50;;;4.55;;
72559;SDS011;62987;52.382;9.752;2023-06-26T10:11:46;10.90;;;5.47;;
72559;SDS011;62987;52.382;9.752;2023-06-26T10:14:18;9.15;;;4.60;;
72559;SDS011;62987;52.382;9.752;2023-06-26T10:16:50;8.63;;;4.80;;
72559;SDS011;62987;52.382;9.752;2023-06-26T10:19:19;8.57;;;4.47;;
72559;SDS011;62987;52.382;9.752;2023-06-26T10:21:52;9.73;;;4.70;;
72559;SDS011;62987;52.382;9.752;2023-06-26T10:24:22;7.55;;;4.05;;
72559;SDS011;62987;52.382;9.752;2023-06-26T10:26:52;8.40;;;4.63;;
72559;SDS011;62987;52.382;9.752;2023-06-26T10:29:24;7.90;;;3.50;;
72559;SDS011;62987;52.382;9.752;2023-06-26T10:31:55;6.40;;;3.42;;
72559;SDS011;62987;52.382;9.752;2023-06-26T10:34:29;6.82;;;3.17;;
72559;SDS011;62987;52.382;9.752;2023-06-26T10:36:58;11.02;;;3.85;;
72559;SDS011;62987;52.382;9.752;2023-06-26T10:39:27;7.90;;;4.18;;
72559;SDS011;62987;52.382;9.752;2023-06-26T10:42:13;12.27;;;5.18;;
72559;SDS011;62987;52.382;9.752;2023-06-26T10:44:42;7.65;;;4.50;;
72559;SDS011;62987;52.382;9.752;2023-06-26T10:47:12;8.20;;;4.68;;
72559;SDS011;62987;52.382;9.752;2023-06-26T10:49:57;15.30;;;5.63;;
72559;SDS011;62987;52.382;9.752;2023-06-26T10:53:09;10.98;;;5.32;;
72559;SDS011;62987;52.382;9.752;2023-06-26T10:55:43;11.95;;;6.07;;
72559;SDS011;62987;52.382;9.752;2023-06-26T10:58:34;8.63;;;4.80;;
72559;SDS011;62987;52.382;9.752;2023-06-26T11:01:19;8.43;;;4.93;;
72559;SDS011;62987;52.382;9.752;2023-06-26T11:04:00;8.98;;;5.40;;
72559;SDS011;62987;52.382;9.752;2023-06-26T11:06:31;9.48;;;5.25;;
72559;SDS011;62987;52.382;9.752;2023-06-26T11:09:06;11.88;;;5.75;;
72559;SDS011;62987;52.382;9.752;2023-06-26T11:14:29;9.57;;;5.80;;
72559;SDS011;62987;52.382;9.752;2023-06-26T11:16:58;10.90;;;5.93;;
72559;SDS011;62987;52.382;9.752;2023-06-26T11:19:31;11.70;;;5.13;;
72559;SDS011;62987;52.382;9.752;2023-06-26T11:21:59;12.20;;;5.35;;
72559;SDS011;62987;52.382;9.752;2023-06-26T11:24:30;8.77;;;5.10;;
72559;SDS011;62987;52.382;9.752;2023-06-26T11:27:01;8.07;;;4.90;;
72559;SDS011;62987;52.382;9.752;2023-06-26T11:29:32;6.88;;;4.45;;
72559;SDS011;62987;52.382;9.752;2023-06-26T11:32:01;9.63;;;4.30;;
72559;SDS011;62987;52.382;9.752;2023-06-26T11:34:33;9.05;;;5.05;;
72559;SDS011;62987;52.382;9.752;2023-06-26T11:37:04;7.70;;;4.93;;
72559;SDS011;62987;52.382;9.752;2023-06-26T11:39:33;7.85;;;4.60;;
72559;SDS011;62987;52.382;9.752;2023-06-26T11:42:01;8.27;;;4.75;;
72559;SDS011;62987;52.382;9.752;2023-06-26T11:44:29;10.13;;;5.07;;
72559;SDS011;62987;52.382;9.752;2023-06-26T11:46:58;8.52;;;4.50;;
72559;SDS011;62987;52.382;9.752;2023-06-26T11:49:26;7.30;;;4.40;;
72559;SDS011;62987;52.382;9.752;2023-06-26T11:51:57;9.57;;;4.03;;
72559;SDS011;62987;52.382;9.752;2023-06-26T11:54:26;9.77;;;4.70;;
72559;SDS011;62987;52.382;9.752;2023-06-26T11:56:55;7.68;;;4.30;;
72559;SDS011;62987;52.382;9.752;2023-06-26T11:59:34;5.03;;;2.80;;
72559;SDS011;62987;52.382;9.752;2023-06-26T12:02:06;7.20;;;3.50;;
72559;SDS011;62987;52.382;9.752;2023-06-26T12:04:36;4.75;;;2.70;;
72559;SDS011;62987;52.382;9.752;2023-06-26T12:07:07;6.53;;;2.63;;
72559;SDS011;62987;52.382;9.752;2023-06-26T12:09:40;6.43;;;2.65;;
72559;SDS011;62987;52.382;9.752;2023-06-26T12:12:11;6.28;;;2.28;;
72559;SDS011;62987;52.382;9.752;2023-06-26T12:14:40;5.07;;;2.35;;
72559;SDS011;62987;52.382;9.752;2023-06-26T12:17:08;4.25;;;2.10;;
72559;SDS011;62987;52.382;9.752;2023-06-26T12:19:38;3.50;;;1.73;;
72559;SDS011;62987;52.382;9.752;2023-06-26T12:22:08;9.68;;;2.38;;
72559;SDS011;62987;52.382;9.752;2023-06-26T12:24:37;4.20;;;2.08;;
72559;SDS011;62987;52.382;9.752;2023-06-26T12:27:10;3.97;;;1.90;;
72559;SDS011;62987;52.382;9.752;2023-06-26T12:29:39;5.53;;;2.10;;
72559;SDS011;62987;52.382;9.752;2023-06-26T12:32:08;4.65;;;1.63;;
72559;SDS011;62987;52.382;9.752;2023-06-26T12:34:38;5.35;;;1.90;;
72559;SDS011;62987;52.382;9.752;2023-06-26T12:37:09;5.15;;;1.98;;
72559;SDS011;62987;52.382;9.752;2023-06-26T12:39:48;4.43;;;1.95;;
72559;SDS011;62987;52.382;9.752;2023-06-26T12:42:17;7.32;;;2.30;;
72559;SDS011;62987;52.382;9.752;2023-06-26T12:44:46;5.75;;;2.80;;
72559;SDS011;62987;52.382;9.752;2023-06-26T12:47:14;3.72;;;2.05;;
72559;SDS011;62987;52.382;9.752;2023-06-26T12:49:43;4.45;;;1.85;;
72559;SDS011;62987;52.382;9.752;2023-06-26T12:52:14;4.07;;;1.92;;
72559;SDS011;62987;52.382;9.752;2023-06-26T12:54:43;3.80;;;1.77;;
72559;SDS011;62987;52.382;9.752;2023-06-26T12:57:11;3.10;;;1.42;;
72559;SDS011;62987;52.382;9.752;2023-06-26T12:59:41;4.35;;;2.00;;
72559;SDS011;62987;52.382;9.752;2023-06-26T13:02:09;2.85;;;1.52;;
72559;SDS011;62987;52.382;9.752;2023-06-26T13:04:39;4.88;;;1.90;;
72559;SDS011;62987;52.382;9.752;2023-06-26T13:07:08;3.88;;;1.63;;
72559;SDS011;62987;52.382;9.752;2023-06-26T13:09:37;6.07;;;1.95;;
72559;SDS011;62987;52.382;9.752;2023-06-26T13:12:07;4.07;;;1.55;;
72559;SDS011;62987;52.382;9.752;2023-06-26T13:14:36;5.07;;;2.30;;
72559;SDS011;62987;52.382;9.752;2023-06-26T13:17:04;4.93;;;1.88;;
72559;SDS011;62987;52.382;9.752;2023-06-26T13:19:35;4.47;;;1.85;;
72559;SDS011;62987;52.382;9.752;2023-06-26T13:22:04;10.50;;;2.33;;
72559;SDS011;62987;52.382;9.752;2023-06-26T13:24:35;7.57;;;2.33;;
72559;SDS011;62987;52.382;9.752;2023-06-26T13:27:04;4.90;;;2.08;;
72559;SDS011;62987;52.382;9.752;2023-06-26T13:29:32;4.15;;;1.70;;
72559;SDS011;62987;52.382;9.752;2023-06-26T13:32:00;3.85;;;1.63;;
72559;SDS011;62987;52.382;9.752;2023-06-26T13:34:30;4.53;;;1.60;;
72559;SDS011;62987;52.382;9.752;2023-06-26T13:36:58;3.65;;;1.73;;
72559;SDS011;62987;52.382;9.752;2023-06-26T13:39:27;3.38;;;1.23;;
72559;SDS011;62987;52.382;9.752;2023-06-26T13:41:55;2.75;;;1.42;;
72559;SDS011;62987;52.382;9.752;2023-06-26T13:44:25;3.50;;;1.52;;
72559;SDS011;62987;52.382;9.752;2023-06-26T13:47:07;4.00;;;1.95;;
72559;SDS011;62987;52.382;9.752;2023-06-26T13:49:36;5.43;;;1.75;;
72559;SDS011;62987;52.382;9.752;2023-06-26T13:52:04;4.00;;;1.75;;
72559;SDS011;62987;52.382;9.752;2023-06-26T13:54:34;3.53;;;1.90;;
72559;SDS011;62987;52.382;9.752;2023-06-26T13:57:02;3.20;;;1.38;;
72559;SDS011;62987;52.382;9.752;2023-06-26T13:59:33;3.75;;;1.48;;
72559;SDS011;62987;52.382;9.752;2023-06-26T14:02:02;2.85;;;1.40;;
72559;SDS011;62987;52.382;9.752;2023-06-26T14:04:31;3.92;;;1.38;;
72559;SDS011;62987;52.382;9.752;2023-06-26T14:06:59;4.30;;;1.85;;
72559;SDS011;62987;52.382;9.752;2023-06-26T14:09:28;3.47;;;1.35;;
72559;SDS011;62987;52.382;9.752;2023-06-26T14:11:56;8.38;;;4.13;;
72559;SDS011;62987;52.382;9.752;2023-06-26T14:14:24;3.42;;;1.95;;
72559;SDS011;62987;52.382;9.752;2023-06-26T14:16:53;2.70;;;1.30;;
72559;SDS011;62987;52.382;9.752;2023-06-26T14:19:21;2.83;;;1.48;;
72559;SDS011;62987;52.382;9.752;2023-06-26T14:21:49;3.33;;;1.38;;
72559;SDS011;62987;52.382;9.752;2023-06-26T14:24:17;3.13;;;1.50;;
72559;SDS011;62987;52.382;9.752;2023-06-26T14:26:45;3.45;;;1.50;;
72559;SDS011;62987;52.382;9.752;2023-06-26T14:29:13;2.22;;;1.00;;
72559;SDS011;62987;52.382;9.752;2023-06-26T14:31:44;4.32;;;1.55;;
72559;SDS011;62987;52.382;9.752;2023-06-26T14:34:17;2.92;;;1.20;;
72559;SDS011;62987;52.382;9.752;2023-06-26T14:36:45;3.55;;;1.23;;
72559;SDS011;62987;52.382;9.752;2023-06-26T14:39:13;3.08;;;1.55;;
72559;SDS011;62987;52.382;9.752;2023-06-26T14:41:44;6.25;;;1.45;;
72559;SDS011;62987;52.382;9.752;2023-06-26T14:44:12;2.90;;;1.33;;
72559;SDS011;62987;52.382;9.752;2023-06-26T14:46:41;5.07;;;1.45;;
72559;SDS011;62987;52.382;9.752;2023-06-26T14:49:09;4.70;;;2.00;;
72559;SDS011;62987;52.382;9.752;2023-06-26T14:51:38;2.55;;;1.20;;
72559;SDS011;62987;52.382;9.752;2023-06-26T14:54:07;3.55;;;1.40;;
72559;SDS011;62987;52.382;9.752;2023-06-26T14:56:35;4.45;;;1.08;;
72559;SDS011;62987;52.382;9.752;2023-06-26T14:59:03;4.15;;;1.38;;
72559;SDS011;62987;52.382;9.752;2023-06-26T15:01:31;3.03;;;1.48;;
72559;SDS011;62987;52.382;9.752;2023-06-26T15:03:59;3.95;;;1.45;;
72559;SDS011;62987;52.382;9.752;2023-06-26T15:06:27;5.78;;;1.55;;
72559;SDS011;62987;52.382;9.752;2023-06-26T15:08:57;2.72;;;1.23;;